createdAt,value
2022-10-22T00:00:08.889Z,100181.03
2022-10-22T00:02:35.908Z,100182.63
2022-10-22T00:05:03.059Z,100182.63
2022-10-22T00:07:30.073Z,100185.69
2022-10-22T00:09:56.754Z,100186.03
2022-10-22T00:12:23.525Z,100181.19
2022-10-22T00:14:50.871Z,100190.03
2022-10-22T00:17:17.499Z,100188.13
2022-10-22T00:19:44.319Z,100187.19
2022-10-22T00:22:12.009Z,100181.78
2022-10-22T00:24:39.575Z,100185.56
2022-10-22T00:27:08.580Z,100189.03
2022-10-22T00:29:35.463Z,100189.78
2022-10-22T00:32:02.889Z,100200.44
2022-10-22T00:34:30.185Z,100200.47
2022-10-22T00:36:56.875Z,100206.03
2022-10-22T00:39:26.200Z,100197.34
2022-10-22T00:41:55.643Z,100199.28
2022-10-22T00:44:59.899Z,100193.72
2022-10-22T00:47:29.700Z,100196.69
2022-10-22T00:49:58.711Z,100188.34
2022-10-22T00:52:25.741Z,100193.34
2022-10-22T00:54:52.840Z,100197.47
2022-10-22T00:57:20.808Z,100197.13
2022-10-22T00:59:48.486Z,100203.91
2022-10-22T01:02:16.107Z,100192.22
2022-10-22T01:04:43.035Z,100187.22
2022-10-22T01:07:17.967Z,100195.56
2022-10-22T01:09:56.818Z,100185.81
2022-10-22T01:12:40.235Z,100186.31
2022-10-22T01:15:32.946Z,100193.69
2022-10-22T01:18:18.039Z,100191.00
2022-10-22T01:20:50.209Z,100194.00
2022-10-22T01:23:44.802Z,100186.25
2022-10-22T01:26:34.950Z,100190.41
2022-10-22T01:29:10.034Z,100185.34
2022-10-22T01:31:44.323Z,100179.94
2022-10-22T01:34:14.821Z,100178.94
2022-10-22T01:36:42.725Z,100169.03
2022-10-22T01:39:10.801Z,100179.44
2022-10-22T01:41:40.375Z,100175.75
2022-10-22T01:44:06.901Z,100172.78
2022-10-22T01:46:33.818Z,100175.91
2022-10-22T01:49:11.895Z,100162.59
2022-10-22T01:52:13.052Z,100168.47
2022-10-22T01:54:51.446Z,100161.66
2022-10-22T01:57:43.975Z,100172.91
2022-10-22T02:00:13.459Z,100172.69
2022-10-22T02:02:55.229Z,100166.28
2022-10-22T02:05:32.364Z,100168.06
2022-10-22T02:08:12.161Z,100158.75
2022-10-22T02:10:42.584Z,100162.78
2022-10-22T02:13:15.899Z,100169.50
2022-10-22T02:15:44.955Z,100169.03
2022-10-22T02:18:12.819Z,100167.44
2022-10-22T02:20:42.071Z,100157.91
2022-10-22T02:23:11.092Z,100165.00
2022-10-22T02:25:44.216Z,100161.88
2022-10-22T02:28:15.428Z,100158.81
2022-10-22T02:30:46.711Z,100159.34
2022-10-22T02:33:22.286Z,100164.03
2022-10-22T02:35:51.730Z,100158.19
2022-10-22T02:38:19.151Z,100166.94
2022-10-22T02:40:46.813Z,100165.34
2022-10-22T02:43:13.363Z,100169.31
2022-10-22T02:45:40.561Z,100175.13
2022-10-22T02:48:07.553Z,100175.13
2022-10-22T02:50:34.221Z,100179.78
2022-10-22T02:53:01.038Z,100173.25
2022-10-22T02:55:27.750Z,100177.25
2022-10-22T02:57:54.305Z,100178.47
2022-10-22T03:00:21.220Z,100193.28
2022-10-22T03:02:47.795Z,100181.31
2022-10-22T03:05:14.496Z,100181.19
2022-10-22T03:07:41.442Z,100184.72
2022-10-22T03:10:09.304Z,100183.00
2022-10-22T03:12:35.904Z,100178.78
2022-10-22T03:15:03.304Z,100181.41
2022-10-22T03:17:29.911Z,100184.03
2022-10-22T03:19:56.493Z,100184.66
2022-10-22T03:22:27.225Z,100174.66
2022-10-22T03:24:58.292Z,100183.88
2022-10-22T03:27:28.260Z,100183.50
2022-10-22T03:29:56.646Z,100178.31
2022-10-22T03:32:23.301Z,100179.50
2022-10-22T03:34:50.105Z,100182.72
2022-10-22T03:37:17.072Z,100187.09
2022-10-22T03:39:44.141Z,100190.59
2022-10-22T03:42:11.475Z,100190.50
2022-10-22T03:44:40.081Z,100195.56
2022-10-22T03:47:07.239Z,100186.63
2022-10-22T03:49:33.886Z,100181.56
2022-10-22T03:52:13.433Z,100203.78
2022-10-22T03:54:40.658Z,100184.59
2022-10-22T03:57:07.188Z,100200.00
2022-10-22T03:59:42.137Z,100210.91
2022-10-22T04:02:09.982Z,100214.06
2022-10-22T04:04:37.404Z,100212.84
2022-10-22T04:07:05.838Z,100213.22
2022-10-22T04:09:33.318Z,100210.78
2022-10-22T04:12:00.877Z,100218.63
2022-10-22T04:14:27.545Z,100214.16
2022-10-22T04:16:54.320Z,100216.56
2022-10-22T04:19:20.970Z,100216.34
2022-10-22T04:21:47.804Z,100213.22
2022-10-22T04:24:14.613Z,100218.78
2022-10-22T04:26:41.753Z,100222.47
2022-10-22T04:29:11.946Z,100228.38
2022-10-22T04:31:41.851Z,100224.19
2022-10-22T04:34:08.465Z,100227.94
2022-10-22T04:36:35.061Z,100226.97
2022-10-22T04:39:02.098Z,100227.44
2022-10-22T04:41:34.799Z,100224.19
2022-10-22T04:44:01.993Z,100223.34
2022-10-22T04:46:30.768Z,100214.16
2022-10-22T04:48:57.456Z,100218.63
2022-10-22T04:51:26.034Z,100216.94
2022-10-22T04:53:53.382Z,100222.75
2022-10-22T04:56:26.750Z,100214.16
2022-10-22T04:58:56.201Z,100221.06
2022-10-22T05:01:24.697Z,100218.06
2022-10-22T05:03:53.381Z,100228.66
2022-10-22T05:06:20.826Z,100238.00
2022-10-22T05:08:48.706Z,100240.06
2022-10-22T05:11:18.885Z,100236.19
2022-10-22T05:13:46.069Z,100236.28
2022-10-22T05:16:13.619Z,100233.34
2022-10-22T05:18:43.193Z,100245.84
2022-10-22T05:21:16.033Z,100250.56
2022-10-22T05:23:44.396Z,100253.34
2022-10-22T05:26:12.575Z,100263.13
2022-10-22T05:28:40.401Z,100254.53
2022-10-22T05:31:08.863Z,100263.72
2022-10-22T05:33:35.553Z,100264.06
2022-10-22T05:36:05.159Z,100259.72
2022-10-22T05:38:33.022Z,100266.63
2022-10-22T05:41:01.781Z,100259.72
2022-10-22T05:43:28.793Z,100271.22
2022-10-22T05:45:56.060Z,100261.28
2022-10-22T05:48:22.871Z,100275.94
2022-10-22T05:50:50.708Z,100267.25
2022-10-22T05:53:20.435Z,100270.84
2022-10-22T05:55:47.037Z,100272.69
2022-10-22T05:58:14.122Z,100283.47
2022-10-22T06:00:41.386Z,100283.56
2022-10-22T06:03:08.012Z,100285.00
2022-10-22T06:05:38.489Z,100286.59
2022-10-22T06:08:05.624Z,100286.59
2022-10-22T06:10:32.377Z,100290.44
2022-10-22T06:13:01.415Z,100292.72
2022-10-22T06:15:28.051Z,100288.13
2022-10-22T06:17:54.625Z,100294.41
2022-10-22T06:20:21.571Z,100297.78
2022-10-22T06:22:48.235Z,100297.69
2022-10-22T06:25:15.043Z,100308.56
2022-10-22T06:27:41.782Z,100309.53
2022-10-22T06:30:09.185Z,100311.69
2022-10-22T06:32:35.768Z,100302.88
2022-10-22T06:35:02.302Z,100307.31
2022-10-22T06:37:28.916Z,100315.53
2022-10-22T06:39:55.479Z,100317.59
2022-10-22T06:42:22.085Z,100334.03
2022-10-22T06:44:49.097Z,100324.59
2022-10-22T06:47:15.719Z,100337.06
2022-10-22T06:49:42.629Z,100333.91
2022-10-22T06:52:09.229Z,100346.34
2022-10-22T06:54:36.050Z,100357.94
2022-10-22T06:57:02.590Z,100352.00
2022-10-22T06:59:29.339Z,100363.38
2022-10-22T07:01:55.944Z,100365.09
2022-10-22T07:04:22.493Z,100364.75
2022-10-22T07:06:49.068Z,100373.66
2022-10-22T07:09:15.751Z,100371.72
2022-10-22T07:11:44.636Z,100383.69
2022-10-22T07:14:12.812Z,100389.09
2022-10-22T07:16:41.959Z,100396.88
2022-10-22T07:19:09.092Z,100399.03
2022-10-22T07:21:35.698Z,100399.41
2022-10-22T07:24:02.357Z,100400.94
2022-10-22T07:26:30.960Z,100410.50
2022-10-22T07:28:59.678Z,100405.34
2022-10-22T07:31:27.513Z,100406.53
2022-10-22T07:33:54.070Z,100405.06
2022-10-22T07:36:20.638Z,100400.22
2022-10-22T07:38:49.023Z,100415.72
2022-10-22T07:41:16.766Z,100416.66
2022-10-22T07:43:43.792Z,100421.72
2022-10-22T07:46:10.835Z,100425.47
2022-10-22T07:48:37.812Z,100426.31
2022-10-22T07:51:05.629Z,100427.41
2022-10-22T07:53:32.367Z,100420.84
2022-10-22T07:55:59.025Z,100415.03
2022-10-22T07:58:25.753Z,100423.25
2022-10-22T08:00:55.856Z,100419.78
2022-10-22T08:03:22.724Z,100424.63
2022-10-22T08:05:49.418Z,100428.59
2022-10-22T08:08:17.109Z,100439.09
2022-10-22T08:10:44.394Z,100441.19
2022-10-22T08:13:11.307Z,100441.63
2022-10-22T08:15:38.600Z,100443.31
2022-10-22T08:18:06.106Z,100440.28
2022-10-22T08:20:32.798Z,100445.72
2022-10-22T08:22:59.516Z,100440.53
2022-10-22T08:25:27.391Z,100457.38
2022-10-22T08:27:54.199Z,100458.47
2022-10-22T08:30:20.864Z,100459.44
2022-10-22T08:32:49.327Z,100450.63
2022-10-22T08:35:18.433Z,100464.16
2022-10-22T08:37:45.149Z,100460.41
2022-10-22T08:40:21.490Z,100475.91
2022-10-22T08:43:02.381Z,100475.28
2022-10-22T08:46:01.320Z,100482.66
2022-10-22T08:48:45.112Z,100475.41
2022-10-22T08:51:16.383Z,100478.06
2022-10-22T08:54:07.071Z,100489.91
2022-10-22T08:56:36.604Z,100484.09
2022-10-22T08:59:11.748Z,100492.81
2022-10-22T09:01:43.563Z,100491.13
2022-10-22T09:04:48.817Z,100496.69
2022-10-22T09:07:15.634Z,100497.28
2022-10-22T09:09:48.147Z,100494.38
2022-10-22T09:12:20.198Z,100506.72
2022-10-22T09:14:47.297Z,100505.50
2022-10-22T09:17:26.874Z,100494.88
2022-10-22T09:20:23.759Z,100503.94
2022-10-22T09:23:15.674Z,100507.31
2022-10-22T09:25:44.921Z,100508.03
2022-10-22T09:28:11.827Z,100498.22
2022-10-22T09:30:39.980Z,100508.63
2022-10-22T09:33:28.212Z,100511.41
2022-10-22T09:35:58.345Z,100506.81
2022-10-22T09:38:31.908Z,100513.13
2022-10-22T09:41:01.248Z,100528.22
2022-10-22T09:43:27.827Z,100523.00
2022-10-22T09:46:00.833Z,100523.00
2022-10-22T09:48:58.541Z,100523.88
2022-10-22T09:51:36.054Z,100535.44
2022-10-22T09:54:14.995Z,100531.09
2022-10-22T09:56:42.403Z,100523.16
2022-10-22T09:59:16.403Z,100533.16
2022-10-22T10:01:46.782Z,100536.09
2022-10-22T10:04:16.666Z,100537.28
2022-10-22T10:06:44.846Z,100550.94
2022-10-22T10:09:20.649Z,100544.53
2022-10-22T10:12:09.032Z,100545.50
2022-10-22T10:14:41.340Z,100553.63
2022-10-22T10:17:29.037Z,100551.19
2022-10-22T10:20:33.193Z,100555.19
2022-10-22T10:23:24.444Z,100559.78
2022-10-22T10:26:04.030Z,100563.78
2022-10-22T10:28:51.328Z,100560.75
2022-10-22T10:31:38.984Z,100562.56
2022-10-22T10:34:31.280Z,100564.94
2022-10-22T10:37:03.990Z,100577.66
2022-10-22T10:39:49.611Z,100573.31
2022-10-22T10:42:19.090Z,100572.94
2022-10-22T10:45:14.114Z,100572.06
2022-10-22T10:47:59.757Z,100570.78
2022-10-22T10:50:34.579Z,100569.53
2022-10-22T10:53:22.397Z,100570.03
2022-10-22T10:56:26.739Z,100565.56
2022-10-22T10:59:04.635Z,100576.81
2022-10-22T11:01:44.601Z,100578.28
2022-10-22T11:04:30.745Z,100566.78
2022-10-22T11:07:10.954Z,100580.06
2022-10-22T11:10:21.149Z,100578.38
2022-10-22T11:12:52.334Z,100572.59
2022-10-22T11:15:31.000Z,100587.22
2022-10-22T11:18:07.423Z,100583.72
2022-10-22T11:20:53.538Z,100580.94
2022-10-22T11:23:32.774Z,100580.78
2022-10-22T11:26:01.656Z,100587.34
2022-10-22T11:28:42.215Z,100586.84
2022-10-22T11:31:15.906Z,100584.78
2022-10-22T11:33:57.306Z,100590.81
2022-10-22T11:36:33.123Z,100593.00
2022-10-22T11:39:03.630Z,100590.44
2022-10-22T11:41:33.082Z,100579.31
2022-10-22T11:44:20.783Z,100595.78
2022-10-22T11:47:08.387Z,100591.06
2022-10-22T11:49:44.845Z,100588.53
2022-10-22T11:52:25.913Z,100595.91
2022-10-22T11:54:58.045Z,100599.53
2022-10-22T11:57:36.714Z,100596.41
2022-10-22T12:00:30.188Z,100610.81
2022-10-22T12:03:32.203Z,100611.91
2022-10-22T12:06:04.975Z,100618.19
2022-10-22T12:08:33.876Z,100616.25
2022-10-22T12:11:06.297Z,100609.59
2022-10-22T12:14:11.763Z,100615.25
2022-10-22T12:16:55.862Z,100604.50
2022-10-22T12:19:25.971Z,100614.19
2022-10-22T12:21:58.947Z,100596.03
2022-10-22T12:24:31.647Z,100605.00
2022-10-22T12:26:58.256Z,100604.28
2022-10-22T12:29:26.509Z,100593.88
2022-10-22T12:31:54.124Z,100594.22
2022-10-22T12:34:24.999Z,100588.28
2022-10-22T12:36:53.892Z,100586.25
2022-10-22T12:39:25.078Z,100585.75
2022-10-22T12:41:52.979Z,100588.91
2022-10-22T12:44:20.245Z,100582.50
2022-10-22T12:46:51.817Z,100587.09
2022-10-22T12:49:24.884Z,100578.00
2022-10-22T12:51:51.659Z,100582.00
2022-10-22T12:54:26.432Z,100582.22
2022-10-22T12:56:55.197Z,100578.47
2022-10-22T12:59:21.912Z,100577.28
2022-10-22T13:01:50.270Z,100582.09
2022-10-22T13:04:26.864Z,100582.22
2022-10-22T13:07:11.832Z,100574.56
2022-10-22T13:09:41.105Z,100578.09
2022-10-22T13:12:14.638Z,100576.53
2022-10-22T13:14:43.593Z,100578.81
2022-10-22T13:17:20.693Z,100579.03
2022-10-22T13:19:50.749Z,100583.25
2022-10-22T13:22:32.768Z,100584.78
2022-10-22T13:25:22.298Z,100581.69
2022-10-22T13:27:56.460Z,100592.38
2022-10-22T13:30:32.844Z,100583.84
2022-10-22T13:33:06.822Z,100590.03
2022-10-22T13:35:37.218Z,100588.72
2022-10-22T13:38:15.752Z,100583.41
2022-10-22T13:40:43.078Z,100600.97
2022-10-22T13:43:09.611Z,100595.31
2022-10-22T13:45:36.397Z,100603.16
2022-10-22T13:48:03.566Z,100597.59
2022-10-22T13:50:30.644Z,100594.53
2022-10-22T13:52:58.120Z,100604.44
2022-10-22T13:55:28.962Z,100599.63
2022-10-22T13:58:03.630Z,100608.75
2022-10-22T14:00:31.089Z,100611.31
2022-10-22T14:02:59.729Z,100610.63
2022-10-22T14:05:26.363Z,100623.00
2022-10-22T14:07:53.312Z,100619.59
2022-10-22T14:10:22.862Z,100622.88
2022-10-22T14:12:53.384Z,100620.94
2022-10-22T14:15:26.384Z,100611.97
2022-10-22T14:17:56.811Z,100614.59
2022-10-22T14:20:32.499Z,100618.56
2022-10-22T14:23:11.648Z,100621.09
2022-10-22T14:25:38.340Z,100614.59
2022-10-22T14:28:04.982Z,100618.84
2022-10-22T14:30:32.780Z,100621.22
2022-10-22T14:32:59.462Z,100626.88
2022-10-22T14:35:26.115Z,100621.09
2022-10-22T14:37:53.727Z,100616.59
2022-10-22T14:40:21.186Z,100614.25
2022-10-22T14:42:48.798Z,100612.44
2022-10-22T14:45:24.513Z,100615.34
2022-10-22T14:47:52.398Z,100611.66
2022-10-22T14:50:19.425Z,100613.34
2022-10-22T14:52:46.190Z,100614.41
2022-10-22T14:55:15.437Z,100619.03
2022-10-22T14:57:42.890Z,100625.00
2022-10-22T15:00:14.670Z,100624.66
2022-10-22T15:02:42.420Z,100632.19
2022-10-22T15:05:10.164Z,100633.91
2022-10-22T15:07:37.559Z,100626.63
2022-10-22T15:10:05.544Z,100629.34
2022-10-22T15:12:32.603Z,100633.19
2022-10-22T15:14:59.458Z,100628.28
2022-10-22T15:17:26.171Z,100635.63
2022-10-22T15:19:53.210Z,100635.06
2022-10-22T15:22:20.575Z,100637.22
2022-10-22T15:24:48.438Z,100628.50
2022-10-22T15:27:15.903Z,100634.66
2022-10-22T15:29:42.692Z,100632.19
2022-10-22T15:32:12.089Z,100635.41
2022-10-22T15:34:40.043Z,100631.91
2022-10-22T15:37:09.011Z,100642.16
2022-10-22T15:39:38.662Z,100645.03
2022-10-22T15:42:05.303Z,100646.31
2022-10-22T15:44:32.403Z,100644.59
2022-10-22T15:47:00.436Z,100649.69
2022-10-22T15:49:28.579Z,100640.75
2022-10-22T15:51:55.906Z,100646.81
2022-10-22T15:54:25.296Z,100648.75
2022-10-22T15:56:52.126Z,100645.88
2022-10-22T15:59:18.768Z,100647.97
2022-10-22T16:01:46.086Z,100648.69
2022-10-22T16:04:13.413Z,100660.91
2022-10-22T16:06:46.172Z,100656.34
2022-10-22T16:09:15.914Z,100664.00
2022-10-22T16:11:42.905Z,100661.63
2022-10-22T16:14:15.009Z,100662.09
2022-10-22T16:16:47.334Z,100664.69
2022-10-22T16:19:16.521Z,100665.91
2022-10-22T16:21:45.015Z,100669.53
2022-10-22T16:24:12.515Z,100672.72
2022-10-22T16:26:39.164Z,100660.38
2022-10-22T16:29:07.042Z,100664.50
2022-10-22T16:31:34.230Z,100670.44
2022-10-22T16:34:01.008Z,100677.34
2022-10-22T16:36:27.609Z,100684.00
2022-10-22T16:38:54.305Z,100678.69
2022-10-22T16:41:23.969Z,100683.41
2022-10-22T16:43:54.899Z,100682.09
2022-10-22T16:46:23.143Z,100685.84
2022-10-22T16:48:52.545Z,100676.84
2022-10-22T16:51:25.896Z,100680.00
2022-10-22T16:53:53.883Z,100677.09
2022-10-22T16:56:21.670Z,100690.16
2022-10-22T16:58:50.913Z,100680.84
2022-10-22T17:01:19.578Z,100689.41
2022-10-22T17:03:46.251Z,100679.72
2022-10-22T17:06:13.142Z,100687.47
2022-10-22T17:08:41.337Z,100673.56
2022-10-22T17:11:10.738Z,100678.88
2022-10-22T17:13:37.906Z,100680.09
2022-10-22T17:16:06.733Z,100688.91
2022-10-22T17:18:35.694Z,100692.41
2022-10-22T17:21:04.412Z,100692.53
2022-10-22T17:23:31.367Z,100697.59
2022-10-22T17:26:00.539Z,100687.44
2022-10-22T17:28:28.328Z,100697.47
2022-10-22T17:31:10.716Z,100695.25
2022-10-22T17:33:37.528Z,100701.81
2022-10-22T17:36:10.734Z,100696.50
2022-10-22T17:38:38.870Z,100709.59
2022-10-22T17:41:07.451Z,100702.09
2022-10-22T17:43:37.654Z,100700.25
2022-10-22T17:46:13.263Z,100702.16
2022-10-22T17:48:40.112Z,100706.09
2022-10-22T17:51:12.249Z,100713.75
2022-10-22T17:53:46.155Z,100712.03
2022-10-22T17:56:15.481Z,100713.91
2022-10-22T17:58:42.279Z,100710.97
2022-10-22T18:01:22.838Z,100720.88
2022-10-22T18:03:49.638Z,100717.16
2022-10-22T18:06:16.780Z,100712.06
2022-10-22T18:08:44.674Z,100728.84
2022-10-22T18:11:14.568Z,100727.28
2022-10-22T18:13:41.208Z,100725.94
2022-10-22T18:16:08.426Z,100725.72
2022-10-22T18:18:36.238Z,100719.69
2022-10-22T18:21:03.760Z,100713.81
2022-10-22T18:23:30.426Z,100712.41
2022-10-22T18:25:56.962Z,100717.78
2022-10-22T18:28:23.729Z,100720.09
2022-10-22T18:30:50.876Z,100715.66
2022-10-22T18:33:19.056Z,100717.19
2022-10-22T18:35:46.775Z,100721.97
2022-10-22T18:38:13.554Z,100726.41
2022-10-22T18:40:46.774Z,100720.09
2022-10-22T18:43:14.106Z,100720.91
2022-10-22T18:45:47.720Z,100731.38
2022-10-22T18:48:18.058Z,100721.44
2022-10-22T18:50:46.550Z,100724.91
2022-10-22T18:53:15.177Z,100716.25
2022-10-22T18:55:42.024Z,100722.84
2022-10-22T18:58:08.957Z,100713.84
2022-10-22T19:00:35.963Z,100714.13
2022-10-22T19:03:03.210Z,100713.25
2022-10-22T19:05:30.500Z,100715.03
2022-10-22T19:07:57.193Z,100711.56
2022-10-22T19:10:24.292Z,100710.97
2022-10-22T19:12:50.941Z,100713.19
2022-10-22T19:15:17.812Z,100707.78
2022-10-22T19:17:44.730Z,100714.47
2022-10-22T19:20:11.600Z,100721.63
2022-10-22T19:22:38.504Z,100718.81
2022-10-22T19:25:07.155Z,100715.09
2022-10-22T19:27:36.510Z,100726.47
2022-10-22T19:30:04.664Z,100720.38
2022-10-22T19:32:31.343Z,100717.69
2022-10-22T19:34:58.053Z,100717.06
2022-10-22T19:37:24.664Z,100719.06
2022-10-22T19:39:51.582Z,100717.84
2022-10-22T19:42:18.322Z,100707.72
2022-10-22T19:44:44.891Z,100713.72
2022-10-22T19:47:11.472Z,100710.41
2022-10-22T19:49:38.194Z,100710.44
2022-10-22T19:52:05.502Z,100710.44
2022-10-22T19:54:32.069Z,100712.19
2022-10-22T19:56:58.704Z,100706.47
2022-10-22T19:59:29.787Z,100700.88
2022-10-22T20:01:58.139Z,100701.88
2022-10-22T20:04:26.782Z,100696.78
2022-10-22T20:06:55.050Z,100701.25
2022-10-22T20:09:21.881Z,100694.69
2022-10-22T20:11:49.049Z,100690.69
2022-10-22T20:14:15.691Z,100691.13
2022-10-22T20:16:42.524Z,100694.53
2022-10-22T20:19:11.029Z,100689.06
2022-10-22T20:21:37.877Z,100688.63
2022-10-22T20:24:04.525Z,100694.94
2022-10-22T20:26:31.679Z,100700.09
2022-10-22T20:28:58.906Z,100713.50
2022-10-22T20:31:29.231Z,100716.66
2022-10-22T20:33:58.542Z,100722.47
2022-10-22T20:36:26.545Z,100716.59
2022-10-22T20:38:59.351Z,100710.84
2022-10-22T20:41:26.061Z,100710.22
2022-10-22T20:43:52.958Z,100704.66
2022-10-22T20:46:29.381Z,100715.66
2022-10-22T20:49:06.114Z,100713.47
2022-10-22T20:51:34.783Z,100725.19
2022-10-22T20:54:01.399Z,100718.09
2022-10-22T20:56:28.599Z,100712.53
2022-10-22T20:59:04.860Z,100721.34
2022-10-22T21:01:41.060Z,100722.41
2022-10-22T21:04:08.420Z,100711.06
2022-10-22T21:06:38.171Z,100710.75
2022-10-22T21:09:06.990Z,100710.66
2022-10-22T21:11:34.349Z,100713.25
2022-10-22T21:14:01.033Z,100709.50
2022-10-22T21:16:27.942Z,100710.50
2022-10-22T21:18:54.781Z,100716.28
2022-10-22T21:21:21.445Z,100714.59
2022-10-22T21:23:50.304Z,100712.56
2022-10-22T21:26:18.321Z,100708.78
2022-10-22T21:28:45.010Z,100707.59
2022-10-22T21:31:18.771Z,100715.41
2022-10-22T21:33:45.603Z,100720.28
2022-10-22T21:36:12.321Z,100718.69
2022-10-22T21:38:39.135Z,100715.47
2022-10-22T21:41:07.937Z,100712.19
2022-10-22T21:43:37.766Z,100712.78
2022-10-22T21:46:12.947Z,100710.56
2022-10-22T21:48:40.512Z,100708.38
2022-10-22T21:51:10.454Z,100718.72
2022-10-22T21:53:38.085Z,100712.88
2022-10-22T21:56:05.447Z,100716.31
2022-10-22T21:58:36.790Z,100704.44
2022-10-22T22:01:04.279Z,100703.72
2022-10-22T22:03:31.053Z,100703.00
2022-10-22T22:06:01.833Z,100703.16
2022-10-22T22:08:29.283Z,100711.91
2022-10-22T22:11:05.293Z,100723.00
2022-10-22T22:13:33.143Z,100722.84
2022-10-22T22:16:23.863Z,100724.06
2022-10-22T22:18:53.927Z,100719.84
2022-10-22T22:21:21.852Z,100719.91
2022-10-22T22:23:50.192Z,100713.84
2022-10-22T22:26:25.203Z,100711.50
2022-10-22T22:28:55.617Z,100704.66
2022-10-22T22:31:27.909Z,100696.53
2022-10-22T22:34:10.147Z,100702.56
2022-10-22T22:36:40.148Z,100697.56
2022-10-22T22:39:11.346Z,100699.34
2022-10-22T22:41:37.962Z,100698.06
2022-10-22T22:44:04.901Z,100689.75
2022-10-22T22:46:31.607Z,100682.22
2022-10-22T22:48:58.138Z,100690.69
2022-10-22T22:51:25.000Z,100687.28
2022-10-22T22:53:52.010Z,100690.31
2022-10-22T22:56:22.188Z,100683.44
2022-10-22T22:58:49.009Z,100684.38
2022-10-22T23:01:23.263Z,100682.66
2022-10-22T23:04:02.841Z,100683.09
2022-10-22T23:06:32.493Z,100681.84
2022-10-22T23:08:59.638Z,100677.78
2022-10-22T23:11:27.486Z,100686.91
2022-10-22T23:13:59.762Z,100683.16
2022-10-22T23:16:30.348Z,100680.75
2022-10-22T23:18:58.902Z,100676.13
2022-10-22T23:21:31.985Z,100669.88
2022-10-22T23:24:01.718Z,100670.72
2022-10-22T23:26:31.279Z,100676.59
2022-10-22T23:29:17.631Z,100679.81
2022-10-22T23:31:45.798Z,100676.56
2022-10-22T23:34:16.233Z,100672.16
2022-10-22T23:36:43.021Z,100671.31
2022-10-22T23:39:12.077Z,100664.75
2022-10-22T23:41:38.959Z,100665.25
2022-10-22T23:44:07.286Z,100663.50
2022-10-22T23:46:34.922Z,100664.22
2022-10-22T23:49:01.959Z,100657.06
2022-10-22T23:51:28.702Z,100660.56
2022-10-22T23:54:04.717Z,100656.72
2022-10-22T23:56:32.387Z,100652.69
2022-10-22T23:58:59.406Z,100657.19
